ANA126 RJTT-KLAX
Flight info
| Callsign | ANA126 |
|---|---|
| Flight time | N/A |
| Altitude | 37000 |
| Route | INUBO Y808 NOLAX Y812 ADNAP OTR5 KALNA 42N160E 42N170E 41N180E/N0484F390 40N170W 40N160W 40N150W 40N140W/N0478F410 38N130W DCT ALLBE DCT ROVUE DCT SERFR DCT BURGL IRNMN2 |
| Aircraft | B772/H-SDE2E3FGHIJ5LORVWXY/LB1D1 |
Departure
| Time | N/A |
|---|---|
| Airport | Tokyo Haneda International Airport (RJTT) |
Arrival
| Time | 2026-05-05 07:15 |
|---|---|
| Airport | Los Angeles International Airport (KLAX) |
| Time | Latitude | Longitude | Altitude | Speed | Heading |
|---|---|---|---|---|---|
| 2026-05-05 06:08 | 37.48551 | -126.75263 | 41076 ft | 462 kts | 93° |
| 2026-05-05 06:09 | 37.47879 | -126.67246 | 41057 ft | 461 kts | 93° |
| 2026-05-05 06:09 | 37.47195 | -126.59209 | 41071 ft | 462 kts | 93° |
| 2026-05-05 06:10 | 37.46507 | -126.51212 | 41057 ft | 462 kts | 93° |
| 2026-05-05 06:10 | 37.45813 | -126.43224 | 41052 ft | 462 kts | 93° |
| 2026-05-05 06:11 | 37.45110 | -126.35207 | 41073 ft | 463 kts | 93° |
| 2026-05-05 06:11 | 37.44402 | -126.27203 | 41062 ft | 462 kts | 94° |
| 2026-05-05 06:12 | 37.43688 | -126.19193 | 41067 ft | 463 kts | 94° |
| 2026-05-05 06:12 | 37.42965 | -126.11145 | 41051 ft | 463 kts | 94° |
| 2026-05-05 06:13 | 37.42237 | -126.03108 | 41053 ft | 464 kts | 94° |
| 2026-05-05 06:13 | 37.41494 | -125.94969 | 41063 ft | 465 kts | 94° |
| 2026-05-05 06:14 | 37.40758 | -125.86959 | 41074 ft | 464 kts | 94° |
| 2026-05-05 06:14 | 37.40011 | -125.78899 | 41061 ft | 464 kts | 94° |
| 2026-05-05 06:15 | 37.39257 | -125.70821 | 41078 ft | 466 kts | 94° |
| 2026-05-05 06:15 | 37.38500 | -125.62772 | 41079 ft | 465 kts | 94° |
| 2026-05-05 06:16 | 37.37736 | -125.54710 | 41072 ft | 466 kts | 94° |
| 2026-05-05 06:16 | 37.36968 | -125.46657 | 41071 ft | 465 kts | 94° |
| 2026-05-05 06:17 | 37.36192 | -125.38587 | 41080 ft | 467 kts | 94° |
| 2026-05-05 06:17 | 37.35408 | -125.30492 | 41070 ft | 467 kts | 94° |
| 2026-05-05 06:18 | 37.34618 | -125.22382 | 41069 ft | 468 kts | 95° |
| 2026-05-05 06:18 | 37.33820 | -125.14269 | 41068 ft | 467 kts | 94° |
| 2026-05-05 06:19 | 37.33020 | -125.06181 | 41063 ft | 466 kts | 95° |
| 2026-05-05 06:19 | 37.32220 | -124.98148 | 41067 ft | 467 kts | 94° |
| 2026-05-05 06:20 | 37.31411 | -124.90083 | 41059 ft | 469 kts | 95° |
| 2026-05-05 06:20 | 37.30593 | -124.81996 | 41058 ft | 468 kts | 95° |
| 2026-05-05 06:21 | 37.29763 | -124.73827 | 41064 ft | 470 kts | 95° |
| 2026-05-05 06:21 | 37.28930 | -124.65707 | 41070 ft | 470 kts | 95° |
| 2026-05-05 06:22 | 37.28099 | -124.57647 | 41068 ft | 468 kts | 95° |
| 2026-05-05 06:22 | 37.27256 | -124.49529 | 41058 ft | 470 kts | 95° |
| 2026-05-05 06:23 | 37.26410 | -124.41437 | 41065 ft | 471 kts | 95° |
| 2026-05-05 06:23 | 37.25554 | -124.33308 | 41064 ft | 470 kts | 95° |
| 2026-05-05 06:24 | 37.24691 | -124.25163 | 41075 ft | 472 kts | 95° |
| 2026-05-05 06:24 | 37.23797 | -124.16989 | 41065 ft | 472 kts | 98° |
| 2026-05-05 06:25 | 37.21713 | -124.09193 | 41078 ft | 477 kts | 113° |
| 2026-05-05 06:25 | 37.18740 | -124.01670 | 41070 ft | 479 kts | 114° |
| 2026-05-05 06:26 | 37.15735 | -123.94195 | 41051 ft | 480 kts | 114° |
| 2026-05-05 06:26 | 37.12718 | -123.86738 | 41057 ft | 480 kts | 115° |
| 2026-05-05 06:27 | 37.06351 | -123.71104 | 41037 ft | 480 kts | 115° |
| 2026-05-05 06:28 | 37.00443 | -123.56684 | 41035 ft | 480 kts | 115° |
| 2026-05-05 06:28 | 36.94344 | -123.41869 | 41036 ft | 483 kts | 115° |
| 2026-05-05 06:29 | 36.88312 | -123.27287 | 41030 ft | 484 kts | 116° |
| 2026-05-05 06:29 | 36.82155 | -123.12471 | 41036 ft | 484 kts | 116° |
| 2026-05-05 06:30 | 36.75938 | -122.97578 | 41037 ft | 486 kts | 116° |
| 2026-05-05 06:30 | 36.69712 | -122.82735 | 41026 ft | 486 kts | 116° |
| 2026-05-05 06:31 | 36.63417 | -122.67794 | 41033 ft | 488 kts | 116° |
| 2026-05-05 06:31 | 36.57124 | -122.52927 | 41030 ft | 489 kts | 116° |
| 2026-05-05 06:32 | 36.50808 | -122.38072 | 41036 ft | 491 kts | 117° |
| 2026-05-05 06:32 | 36.44418 | -122.23112 | 41027 ft | 493 kts | 118° |
| 2026-05-05 06:33 | 36.38079 | -122.08338 | 41020 ft | 492 kts | 118° |
| 2026-05-05 06:33 | 36.31681 | -121.93497 | 41025 ft | 492 kts | 118° |
| 2026-05-05 06:34 | 36.25234 | -121.78605 | 41010 ft | 494 kts | 118° |
| 2026-05-05 06:34 | 36.18763 | -121.63727 | 41018 ft | 495 kts | 118° |
| 2026-05-05 06:35 | 36.12278 | -121.48883 | 41016 ft | 495 kts | 119° |
| 2026-05-05 06:35 | 36.05954 | -121.33821 | 41023 ft | 496 kts | 112° |
| 2026-05-05 06:36 | 36.01002 | -121.17986 | 41005 ft | 496 kts | 112° |
| 2026-05-05 06:36 | 35.96090 | -121.02398 | 41003 ft | 496 kts | 113° |
| 2026-05-05 06:37 | 35.91103 | -120.86690 | 41004 ft | 497 kts | 113° |
| 2026-05-05 06:37 | 35.86105 | -120.71043 | 41007 ft | 497 kts | 113° |
| 2026-05-05 06:38 | 35.81079 | -120.55393 | 41024 ft | 498 kts | 113° |
| 2026-05-05 06:38 | 35.75975 | -120.39586 | 41012 ft | 500 kts | 114° |
| 2026-05-05 06:39 | 35.70902 | -120.23957 | 40996 ft | 499 kts | 114° |
| 2026-05-05 06:39 | 35.63977 | -120.09701 | 40997 ft | 491 kts | 141° |
| 2026-05-05 06:40 | 35.52858 | -120.00504 | 40957 ft | 482 kts | 151° |
| 2026-05-05 06:40 | 35.47206 | -119.96207 | 39669 ft | 484 kts | 152° |
| 2026-05-05 06:40 | 35.43854 | -119.93674 | 38689 ft | 486 kts | 152° |
| 2026-05-05 06:40 | 35.40988 | -119.91514 | 37929 ft | 487 kts | 152° |
| 2026-05-05 06:41 | 35.38106 | -119.89346 | 37284 ft | 487 kts | 152° |
| 2026-05-05 06:41 | 35.35201 | -119.87164 | 36589 ft | 489 kts | 151° |
| 2026-05-05 06:41 | 35.32312 | -119.84998 | 35849 ft | 492 kts | 151° |
| 2026-05-05 06:41 | 35.29402 | -119.82803 | 35086 ft | 495 kts | 149° |
| 2026-05-05 06:42 | 35.26620 | -119.80341 | 34310 ft | 499 kts | 145° |
| 2026-05-05 06:42 | 35.23861 | -119.77760 | 33476 ft | 501 kts | 144° |
| 2026-05-05 06:42 | 35.21079 | -119.75150 | 32718 ft | 503 kts | 144° |
| 2026-05-05 06:42 | 35.18312 | -119.72558 | 31918 ft | 507 kts | 144° |
| 2026-05-05 06:43 | 35.15503 | -119.69931 | 31049 ft | 511 kts | 144° |
| 2026-05-05 06:43 | 35.12678 | -119.67297 | 30416 ft | 512 kts | 144° |
| 2026-05-05 06:43 | 35.09818 | -119.64629 | 30215 ft | 508 kts | 144° |
| 2026-05-05 06:43 | 35.07090 | -119.62080 | 29846 ft | 485 kts | 144° |
| 2026-05-05 06:44 | 35.04429 | -119.59598 | 29233 ft | 477 kts | 144° |
| 2026-05-05 06:44 | 35.01850 | -119.57198 | 28484 ft | 466 kts | 144° |
| 2026-05-05 06:44 | 34.99282 | -119.54811 | 27570 ft | 457 kts | 144° |
| 2026-05-05 06:44 | 34.96807 | -119.52513 | 26980 ft | 441 kts | 144° |
| 2026-05-05 06:45 | 34.94420 | -119.50298 | 26595 ft | 424 kts | 144° |
| 2026-05-05 06:45 | 34.92117 | -119.48164 | 26332 ft | 411 kts | 145° |
| 2026-05-05 06:45 | 34.89852 | -119.46091 | 25838 ft | 405 kts | 146° |
| 2026-05-05 06:45 | 34.87588 | -119.44070 | 25163 ft | 404 kts | 146° |
| 2026-05-05 06:46 | 34.85313 | -119.42039 | 24537 ft | 403 kts | 146° |
| 2026-05-05 06:46 | 34.83083 | -119.40049 | 24151 ft | 398 kts | 146° |
| 2026-05-05 06:46 | 34.80845 | -119.38051 | 23760 ft | 393 kts | 146° |
| 2026-05-05 06:46 | 34.78677 | -119.36115 | 23305 ft | 390 kts | 145° |
| 2026-05-05 06:47 | 34.76503 | -119.34176 | 23001 ft | 383 kts | 146° |
| 2026-05-05 06:47 | 34.74343 | -119.32252 | 22988 ft | 386 kts | 146° |
| 2026-05-05 06:47 | 34.72179 | -119.30356 | 22725 ft | 379 kts | 147° |
| 2026-05-05 06:47 | 34.70042 | -119.28493 | 22006 ft | 383 kts | 147° |
| 2026-05-05 06:48 | 34.67874 | -119.26603 | 21326 ft | 384 kts | 146° |
| 2026-05-05 06:48 | 34.65706 | -119.24712 | 20890 ft | 379 kts | 147° |
| 2026-05-05 06:48 | 34.63571 | -119.22857 | 20477 ft | 375 kts | 147° |
| 2026-05-05 06:48 | 34.61454 | -119.21033 | 20001 ft | 373 kts | 147° |
| 2026-05-05 06:49 | 34.59362 | -119.19233 | 19517 ft | 371 kts | 147° |
| 2026-05-05 06:49 | 34.57252 | -119.17416 | 19057 ft | 368 kts | 147° |
| 2026-05-05 06:49 | 34.55167 | -119.15609 | 18589 ft | 366 kts | 146° |
| 2026-05-05 06:49 | 34.53136 | -119.13808 | 18126 ft | 364 kts | 146° |
| 2026-05-05 06:50 | 34.51095 | -119.11995 | 17649 ft | 363 kts | 146° |
| 2026-05-05 06:50 | 34.49060 | -119.10190 | 17185 ft | 361 kts | 146° |
| 2026-05-05 06:50 | 34.47031 | -119.08395 | 16735 ft | 358 kts | 146° |
| 2026-05-05 06:50 | 34.45052 | -119.06644 | 16295 ft | 356 kts | 145° |
| 2026-05-05 06:51 | 34.43033 | -119.04868 | 15834 ft | 354 kts | 146° |
| 2026-05-05 06:51 | 34.41053 | -119.03155 | 15384 ft | 352 kts | 146° |
| 2026-05-05 06:51 | 34.39067 | -119.01437 | 14926 ft | 350 kts | 146° |
| 2026-05-05 06:51 | 34.37109 | -118.99745 | 14475 ft | 348 kts | 146° |
| 2026-05-05 06:52 | 34.35167 | -118.98064 | 14190 ft | 333 kts | 146° |
| 2026-05-05 06:52 | 34.33327 | -118.96458 | 14029 ft | 319 kts | 144° |
| 2026-05-05 06:52 | 34.31551 | -118.94841 | 13958 ft | 314 kts | 144° |
| 2026-05-05 06:52 | 34.29829 | -118.93266 | 13924 ft | 307 kts | 144° |
| 2026-05-05 06:53 | 34.28135 | -118.91725 | 13942 ft | 301 kts | 144° |
| 2026-05-05 06:53 | 34.26482 | -118.90224 | 13649 ft | 290 kts | 145° |
| 2026-05-05 06:53 | 34.24882 | -118.88773 | 13221 ft | 285 kts | 144° |
| 2026-05-05 06:53 | 34.23333 | -118.87349 | 12742 ft | 282 kts | 144° |
| 2026-05-05 06:54 | 34.21778 | -118.85916 | 12274 ft | 279 kts | 144° |
| 2026-05-05 06:54 | 34.20245 | -118.84507 | 11982 ft | 269 kts | 144° |
| 2026-05-05 06:54 | 34.18766 | -118.83149 | 11969 ft | 271 kts | 144° |
| 2026-05-05 06:54 | 34.17281 | -118.81787 | 11947 ft | 266 kts | 144° |
| 2026-05-05 06:55 | 34.15806 | -118.80409 | 11921 ft | 268 kts | 141° |
| 2026-05-05 06:55 | 34.14415 | -118.78876 | 11616 ft | 272 kts | 138° |
| 2026-05-05 06:55 | 34.13030 | -118.77318 | 11308 ft | 272 kts | 139° |
| 2026-05-05 06:55 | 34.11630 | -118.75775 | 11025 ft | 269 kts | 139° |
| 2026-05-05 06:56 | 34.10247 | -118.74267 | 10786 ft | 267 kts | 139° |
| 2026-05-05 06:56 | 34.08884 | -118.72786 | 10524 ft | 264 kts | 139° |
| 2026-05-05 06:56 | 34.07497 | -118.71279 | 10215 ft | 259 kts | 140° |
| 2026-05-05 06:56 | 34.06213 | -118.69885 | 10017 ft | 248 kts | 140° |
| 2026-05-05 06:57 | 34.04951 | -118.68516 | 9765 ft | 242 kts | 140° |
| 2026-05-05 06:57 | 34.03737 | -118.67103 | 9445 ft | 240 kts | 128° |
| 2026-05-05 06:57 | 34.02989 | -118.65330 | 9146 ft | 236 kts | 104° |
| 2026-05-05 06:57 | 34.02715 | -118.63421 | 8985 ft | 232 kts | 98° |
| 2026-05-05 06:58 | 34.02508 | -118.61457 | 8967 ft | 236 kts | 97° |
| 2026-05-05 06:58 | 34.02317 | -118.59464 | 8957 ft | 239 kts | 97° |
| 2026-05-05 06:58 | 34.02128 | -118.57460 | 8494 ft | 249 kts | 97° |
| 2026-05-05 06:58 | 34.01931 | -118.55384 | 8037 ft | 249 kts | 97° |
| 2026-05-05 06:59 | 34.01741 | -118.53359 | 8003 ft | 236 kts | 97° |
| 2026-05-05 06:59 | 34.01553 | -118.51363 | 7773 ft | 244 kts | 97° |
| 2026-05-05 06:59 | 34.01359 | -118.49308 | 7400 ft | 249 kts | 97° |
| 2026-05-05 06:59 | 34.01164 | -118.47240 | 7133 ft | 249 kts | 96° |
| 2026-05-05 07:00 | 34.01149 | -118.45167 | 6979 ft | 242 kts | 82° |
| 2026-05-05 07:00 | 34.01447 | -118.43190 | 6969 ft | 240 kts | 78° |
| 2026-05-05 07:00 | 34.01787 | -118.41234 | 6962 ft | 241 kts | 78° |
| 2026-05-05 07:00 | 34.02136 | -118.39230 | 6965 ft | 242 kts | 78° |
| 2026-05-05 07:01 | 34.02477 | -118.37254 | 6964 ft | 241 kts | 78° |
| 2026-05-05 07:01 | 34.02804 | -118.35335 | 6933 ft | 223 kts | 81° |
| 2026-05-05 07:01 | 34.02983 | -118.33558 | 6857 ft | 204 kts | 85° |
| 2026-05-05 07:01 | 34.03128 | -118.31899 | 6630 ft | 197 kts | 83° |
| 2026-05-05 07:02 | 34.03291 | -118.30273 | 6270 ft | 196 kts | 83° |
| 2026-05-05 07:02 | 34.03363 | -118.28655 | 5976 ft | 188 kts | 102° |
| 2026-05-05 07:02 | 34.03175 | -118.27080 | 5963 ft | 196 kts | 86° |
| 2026-05-05 07:02 | 34.03330 | -118.25465 | 5963 ft | 195 kts | 82° |
| 2026-05-05 07:03 | 34.03516 | -118.23850 | 5966 ft | 196 kts | 82° |
| 2026-05-05 07:03 | 34.03701 | -118.22234 | 5959 ft | 195 kts | 82° |
| 2026-05-05 07:03 | 34.03887 | -118.20600 | 5959 ft | 195 kts | 82° |
| 2026-05-05 07:03 | 34.04072 | -118.18989 | 5956 ft | 195 kts | 82° |
| 2026-05-05 07:04 | 34.04263 | -118.17348 | 5792 ft | 200 kts | 82° |
| 2026-05-05 07:04 | 34.04448 | -118.15725 | 5579 ft | 192 kts | 82° |
| 2026-05-05 07:04 | 34.04631 | -118.14128 | 5491 ft | 193 kts | 82° |
| 2026-05-05 07:04 | 34.04817 | -118.12540 | 5438 ft | 193 kts | 82° |
| 2026-05-05 07:05 | 34.05010 | -118.10920 | 5388 ft | 193 kts | 82° |
| 2026-05-05 07:05 | 34.05204 | -118.09323 | 5339 ft | 193 kts | 82° |
| 2026-05-05 07:05 | 34.05405 | -118.07719 | 5291 ft | 193 kts | 82° |
| 2026-05-05 07:05 | 34.05609 | -118.06117 | 5245 ft | 193 kts | 82° |
| 2026-05-05 07:06 | 34.05811 | -118.04535 | 5218 ft | 192 kts | 82° |
| 2026-05-05 07:06 | 34.06016 | -118.02934 | 5202 ft | 192 kts | 82° |
| 2026-05-05 07:06 | 34.05936 | -118.01375 | 5177 ft | 187 kts | 116° |
| 2026-05-05 07:06 | 34.05092 | -118.00208 | 5150 ft | 185 kts | 154° |
| 2026-05-05 07:07 | 34.03870 | -117.99905 | 5114 ft | 179 kts | 186° |
| 2026-05-05 07:07 | 34.02752 | -118.00468 | 5066 ft | 176 kts | 225° |
| 2026-05-05 07:07 | 34.01977 | -118.01619 | 5067 ft | 185 kts | 231° |
| 2026-05-05 07:07 | 34.01170 | -118.02865 | 5032 ft | 186 kts | 232° |
| 2026-05-05 07:08 | 34.00383 | -118.04082 | 5027 ft | 185 kts | 232° |
| 2026-05-05 07:08 | 33.99582 | -118.05322 | 4990 ft | 186 kts | 231° |
| 2026-05-05 07:08 | 33.98901 | -118.06619 | 4955 ft | 184 kts | 245° |
| 2026-05-05 07:08 | 33.98513 | -118.08097 | 4949 ft | 185 kts | 256° |
| 2026-05-05 07:09 | 33.98287 | -118.09618 | 4891 ft | 188 kts | 260° |
| 2026-05-05 07:09 | 33.98117 | -118.11180 | 4732 ft | 185 kts | 261° |
| 2026-05-05 07:09 | 33.97972 | -118.12717 | 4590 ft | 186 kts | 262° |
| 2026-05-05 07:09 | 33.97830 | -118.14253 | 4304 ft | 184 kts | 262° |
| 2026-05-05 07:10 | 33.97689 | -118.15756 | 4040 ft | 177 kts | 262° |
| 2026-05-05 07:10 | 33.97552 | -118.17189 | 3806 ft | 166 kts | 262° |
| 2026-05-05 07:10 | 33.97417 | -118.18549 | 3605 ft | 166 kts | 263° |
| 2026-05-05 07:10 | 33.97282 | -118.19919 | 3380 ft | 164 kts | 264° |
| 2026-05-05 07:11 | 33.97145 | -118.21284 | 3161 ft | 165 kts | 264° |
| 2026-05-05 07:11 | 33.97006 | -118.22649 | 2950 ft | 164 kts | 264° |
| 2026-05-05 07:11 | 33.96868 | -118.24002 | 2732 ft | 158 kts | 263° |
| 2026-05-05 07:11 | 33.96739 | -118.25272 | 2520 ft | 147 kts | 263° |
| 2026-05-05 07:12 | 33.96621 | -118.26441 | 2347 ft | 133 kts | 263° |
| 2026-05-05 07:12 | 33.96507 | -118.27548 | 2191 ft | 138 kts | 263° |
| 2026-05-05 07:12 | 33.96397 | -118.28694 | 2035 ft | 137 kts | 263° |
| 2026-05-05 07:12 | 33.96283 | -118.29828 | 1892 ft | 139 kts | 262° |
| 2026-05-05 07:13 | 33.96165 | -118.30986 | 1721 ft | 139 kts | 263° |
| 2026-05-05 07:13 | 33.96053 | -118.32133 | 1564 ft | 138 kts | 262° |
| 2026-05-05 07:13 | 33.95925 | -118.33271 | 1393 ft | 139 kts | 262° |
| 2026-05-05 07:13 | 33.95799 | -118.34423 | 1158 ft | 137 kts | 263° |
| 2026-05-05 07:14 | 33.95681 | -118.35551 | 921 ft | 136 kts | 263° |
| 2026-05-05 07:14 | 33.95571 | -118.36671 | 718 ft | 134 kts | 263° |
| 2026-05-05 07:14 | 33.95464 | -118.37791 | 539 ft | 134 kts | 263° |
| 2026-05-05 07:14 | 33.95345 | -118.38905 | 368 ft | 134 kts | 263° |
| 2026-05-05 07:15 | 33.95231 | -118.40012 | 191 ft | 133 kts | 263° |
| 2026-05-05 07:15 | 33.95122 | -118.41069 | 131 ft | 115 kts | 263° |
| 2026-05-05 07:15 | 33.95037 | -118.41888 | 130 ft | 80 kts | 263° |
| 2026-05-05 07:15 | 33.94990 | -118.42352 | 126 ft | 31 kts | 263° |
| 2026-05-05 07:16 | 33.94931 | -118.42559 | 124 ft | 25 kts | 240° |
| 2026-05-05 07:16 | 33.94835 | -118.42700 | 120 ft | 21 kts | 223° |
| 2026-05-05 07:16 | 33.94723 | -118.42776 | 117 ft | 15 kts | 190° |
| 2026-05-05 07:16 | 33.94622 | -118.42775 | 116 ft | 14 kts | 174° |
| 2026-05-05 07:17 | 33.94556 | -118.42730 | 115 ft | 11 kts | 107° |
| 2026-05-05 07:17 | 33.94562 | -118.42625 | 116 ft | 12 kts | 82° |
| 2026-05-05 07:17 | 33.94574 | -118.42520 | 118 ft | 12 kts | 82° |
| 2026-05-05 07:17 | 33.94582 | -118.42416 | 120 ft | 12 kts | 83° |
| 2026-05-05 07:18 | 33.94592 | -118.42316 | 122 ft | 12 kts | 83° |
| 2026-05-05 07:18 | 33.94603 | -118.42214 | 124 ft | 12 kts | 83° |
| 2026-05-05 07:18 | 33.94615 | -118.42103 | 124 ft | 14 kts | 83° |
| 2026-05-05 07:18 | 33.94627 | -118.41986 | 126 ft | 13 kts | 84° |
| 2026-05-05 07:19 | 33.94635 | -118.41865 | 126 ft | 15 kts | 84° |
| 2026-05-05 07:19 | 33.94643 | -118.41766 | 127 ft | 7 kts | 89° |
| 2026-05-05 07:19 | 33.94613 | -118.41718 | 127 ft | 8 kts | 162° |
| 2026-05-05 07:19 | 33.94546 | -118.41705 | 127 ft | 10 kts | 173° |
| 2026-05-05 07:20 | 33.94499 | -118.41698 | 126 ft | 2 kts | 167° |
| 2026-05-05 07:20 | 33.94483 | -118.41676 | 126 ft | 4 kts | 104° |
| 2026-05-05 07:20 | 33.94482 | -118.41637 | 127 ft | 5 kts | 85° |
| 2026-05-05 07:20 | 33.94487 | -118.41596 | 127 ft | 0 kts | 83° |